createdAt,value
2023-03-04T00:00:55.154Z,66.96
2023-03-04T00:01:55.145Z,66.96
2023-03-04T00:02:55.151Z,67.07
2023-03-04T00:03:55.109Z,66.96
2023-03-04T00:04:55.093Z,66.96
2023-03-04T00:05:55.076Z,66.96
2023-03-04T00:06:55.086Z,67.07
2023-03-04T00:07:55.051Z,67.07
2023-03-04T00:08:55.034Z,67.07
2023-03-04T00:09:55.020Z,67.07
2023-03-04T00:10:55.018Z,67.07
2023-03-04T00:11:54.996Z,67.07
2023-03-04T00:12:55.003Z,67.07
2023-03-04T00:13:54.966Z,67.07
2023-03-04T00:14:54.956Z,67.16
2023-03-04T00:15:54.938Z,67.07
2023-03-04T00:16:54.926Z,67.16
2023-03-04T00:17:54.911Z,67.07
2023-03-04T00:18:54.900Z,67.07
2023-03-04T00:19:54.888Z,67.16
2023-03-04T00:20:54.872Z,67.16
2023-03-04T00:21:54.878Z,67.16
2023-03-04T00:22:54.870Z,67.16
2023-03-04T00:23:54.844Z,67.16
2023-03-04T00:24:54.820Z,67.16
2023-03-04T00:25:54.805Z,67.16
2023-03-04T00:26:54.792Z,67.16
2023-03-04T00:27:54.792Z,67.16
2023-03-04T00:28:54.768Z,67.27
2023-03-04T00:29:54.755Z,67.27
2023-03-04T00:30:54.740Z,67.27
2023-03-04T00:31:54.918Z,67.27
2023-03-04T00:32:54.711Z,67.27
2023-03-04T00:33:54.700Z,67.27
2023-03-04T00:34:54.699Z,67.27
2023-03-04T00:35:54.704Z,67.27
2023-03-04T00:36:54.658Z,67.27
2023-03-04T00:37:54.646Z,67.27
2023-03-04T00:38:54.658Z,67.27
2023-03-04T00:39:54.617Z,67.37
2023-03-04T00:40:54.612Z,67.27
2023-03-04T00:41:54.596Z,67.27
2023-03-04T00:42:54.580Z,67.27
2023-03-04T00:43:54.565Z,67.27
2023-03-04T00:44:54.551Z,67.27
2023-03-04T00:45:54.575Z,67.27
2023-03-04T00:46:54.523Z,67.37
2023-03-04T00:47:54.510Z,67.37
2023-03-04T00:48:54.498Z,67.27
2023-03-04T00:49:54.482Z,67.37
2023-03-04T00:50:54.471Z,67.37
2023-03-04T00:51:54.458Z,67.37
2023-03-04T00:52:54.446Z,67.37
2023-03-04T00:53:54.432Z,67.37
2023-03-04T00:54:54.446Z,67.37
2023-03-04T00:55:54.409Z,67.37
2023-03-04T00:56:54.392Z,67.37
2023-03-04T00:57:54.387Z,67.37
2023-03-04T00:58:54.370Z,67.37
2023-03-04T00:59:54.351Z,67.37
2023-03-04T01:00:54.498Z,67.37
2023-03-04T01:01:54.324Z,67.37
2023-03-04T01:02:54.314Z,67.37
2023-03-04T01:03:54.298Z,67.37
2023-03-04T01:04:54.285Z,67.37
2023-03-04T01:05:54.271Z,67.37
2023-03-04T01:06:54.259Z,67.48
2023-03-04T01:07:54.256Z,67.48
2023-03-04T01:08:54.234Z,67.37
2023-03-04T01:09:54.219Z,67.37
2023-03-04T01:10:54.258Z,67.48
2023-03-04T01:11:54.192Z,67.48
2023-03-04T01:12:54.178Z,67.48
2023-03-04T01:13:54.166Z,67.48
2023-03-04T01:14:54.151Z,67.48
2023-03-04T01:15:54.139Z,67.48
2023-03-04T01:16:54.159Z,67.58
2023-03-04T01:17:54.143Z,67.48
2023-03-04T01:18:54.099Z,67.48
2023-03-04T01:19:54.089Z,67.58
2023-03-04T01:20:54.076Z,67.48
2023-03-04T01:21:54.059Z,67.58
2023-03-04T01:22:54.044Z,67.48
2023-03-04T01:23:54.033Z,67.58
2023-03-04T01:24:54.018Z,67.58
2023-03-04T01:25:54.021Z,67.58
2023-03-04T01:26:54.014Z,67.58
2023-03-04T01:27:53.980Z,67.58
2023-03-04T01:28:54.015Z,67.58
2023-03-04T01:29:53.951Z,67.58
2023-03-04T01:30:54.057Z,67.58
2023-03-04T01:31:53.940Z,67.61
2023-03-04T01:32:53.909Z,67.58
2023-03-04T01:33:53.898Z,67.58
2023-03-04T01:34:53.884Z,67.58
2023-03-04T01:35:53.920Z,67.68
2023-03-04T01:36:53.857Z,67.58
2023-03-04T01:37:53.852Z,67.58
2023-03-04T01:38:53.834Z,67.58
2023-03-04T01:39:53.818Z,67.58
2023-03-04T01:40:53.808Z,67.58
2023-03-04T01:41:53.791Z,67.68
2023-03-04T01:42:53.802Z,67.68
2023-03-04T01:43:53.766Z,67.68
2023-03-04T01:44:53.769Z,67.68
2023-03-04T01:45:53.775Z,67.68
2023-03-04T01:46:53.749Z,67.68
2023-03-04T01:47:53.713Z,67.68
2023-03-04T01:48:53.798Z,67.68
2023-03-04T01:49:53.698Z,67.68
2023-03-04T01:50:53.670Z,67.68
2023-03-04T01:51:53.665Z,67.68
2023-03-04T01:52:53.642Z,67.68
2023-03-04T01:53:53.633Z,67.68
2023-03-04T01:54:53.618Z,67.68
2023-03-04T01:55:53.611Z,67.68
2023-03-04T01:56:53.604Z,67.58
2023-03-04T01:57:53.581Z,67.68
2023-03-04T01:58:53.666Z,67.68
2023-03-04T01:59:53.553Z,67.68
2023-03-04T02:00:53.538Z,67.79
2023-03-04T02:01:53.623Z,67.68
2023-03-04T02:02:53.516Z,67.79
2023-03-04T02:03:53.536Z,67.79
2023-03-04T02:04:53.484Z,67.79
2023-03-04T02:05:53.476Z,67.79
2023-03-04T02:06:53.455Z,67.79
2023-03-04T02:07:53.444Z,67.79
2023-03-04T02:08:53.431Z,67.79
2023-03-04T02:09:53.418Z,67.89
2023-03-04T02:10:53.405Z,67.79
2023-03-04T02:11:53.397Z,67.79
2023-03-04T02:12:53.377Z,67.79
2023-03-04T02:13:53.369Z,67.82
2023-03-04T02:14:53.373Z,67.79
2023-03-04T02:15:53.400Z,67.89
2023-03-04T02:16:53.324Z,67.89
2023-03-04T02:17:53.313Z,67.89
2023-03-04T02:18:53.301Z,67.92
2023-03-04T02:19:53.292Z,67.89
2023-03-04T02:20:53.276Z,67.89
2023-03-04T02:21:53.261Z,67.89
2023-03-04T02:22:53.244Z,67.92
2023-03-04T02:23:53.233Z,67.89
2023-03-04T02:24:53.218Z,67.92
2023-03-04T02:25:53.204Z,67.89
2023-03-04T02:26:53.193Z,67.99
2023-03-04T02:27:53.179Z,67.99
2023-03-04T02:28:53.168Z,67.89
2023-03-04T02:29:53.156Z,67.89
2023-03-04T02:30:53.172Z,68.02
2023-03-04T02:31:53.127Z,67.99
2023-03-04T02:32:53.113Z,67.99
2023-03-04T02:33:53.102Z,67.89
2023-03-04T02:34:53.092Z,67.99
2023-03-04T02:35:53.186Z,67.92
2023-03-04T02:36:53.058Z,67.89
2023-03-04T02:37:53.047Z,67.99
2023-03-04T02:38:53.032Z,68.02
2023-03-04T02:39:53.020Z,68.02
2023-03-04T02:40:53.009Z,67.99
2023-03-04T02:41:53.004Z,68.02
2023-03-04T02:42:52.980Z,67.99
2023-03-04T02:43:52.990Z,68.02
2023-03-04T02:44:52.952Z,68.02
2023-03-04T02:45:52.940Z,67.99
2023-03-04T02:46:52.981Z,67.99
2023-03-04T02:47:52.917Z,68.02
2023-03-04T02:48:52.899Z,67.99
2023-03-04T02:49:52.887Z,67.89
2023-03-04T02:50:52.892Z,68.02
2023-03-04T02:51:52.861Z,67.99
2023-03-04T02:52:52.845Z,67.99
2023-03-04T02:53:52.834Z,67.99
2023-03-04T02:54:52.823Z,67.99
2023-03-04T02:55:52.812Z,67.99
2023-03-04T02:56:52.793Z,68.02
2023-03-04T02:57:52.781Z,68.02
2023-03-04T02:58:52.766Z,68.02
2023-03-04T02:59:52.771Z,68.02
2023-03-04T03:00:52.774Z,67.99
2023-03-04T03:01:52.739Z,67.99
2023-03-04T03:02:52.770Z,67.99
2023-03-04T03:03:52.704Z,68.02
2023-03-04T03:04:52.688Z,67.89
2023-03-04T03:05:52.676Z,67.99
2023-03-04T03:06:52.662Z,67.99
2023-03-04T03:07:52.651Z,67.99
2023-03-04T03:08:52.637Z,67.99
2023-03-04T03:09:52.625Z,67.99
2023-03-04T03:10:52.610Z,67.99
2023-03-04T03:11:52.615Z,67.99
2023-03-04T03:12:52.582Z,67.99
2023-03-04T03:13:52.571Z,68.02
2023-03-04T03:14:52.557Z,67.99
2023-03-04T03:15:52.636Z,68.02
2023-03-04T03:16:52.529Z,67.99
2023-03-04T03:17:52.517Z,67.99
2023-03-04T03:18:52.529Z,67.99
2023-03-04T03:19:52.492Z,67.99
2023-03-04T03:20:52.475Z,67.99
2023-03-04T03:21:52.465Z,67.99
2023-03-04T03:22:52.448Z,67.99
2023-03-04T03:23:52.438Z,67.99
2023-03-04T03:24:52.421Z,67.99
2023-03-04T03:25:52.408Z,67.99
2023-03-04T03:26:52.394Z,67.99
2023-03-04T03:27:52.387Z,67.99
2023-03-04T03:28:52.378Z,67.99
2023-03-04T03:29:52.355Z,67.99
2023-03-04T03:30:52.340Z,68.10
2023-03-04T03:31:52.344Z,67.99
2023-03-04T03:32:52.320Z,68.10
2023-03-04T03:33:52.306Z,68.02
2023-03-04T03:34:52.309Z,68.10
2023-03-04T03:35:52.391Z,68.10
2023-03-04T03:36:52.274Z,68.10
2023-03-04T03:37:52.282Z,67.99
2023-03-04T03:38:52.243Z,67.99
2023-03-04T03:39:52.232Z,67.99
2023-03-04T03:40:52.209Z,67.99
2023-03-04T03:41:52.196Z,67.99
2023-03-04T03:42:52.180Z,68.10
2023-03-04T03:43:52.171Z,68.10
2023-03-04T03:44:52.181Z,68.10
2023-03-04T03:45:52.280Z,68.13
2023-03-04T03:46:52.125Z,68.10
2023-03-04T03:47:52.115Z,67.99
2023-03-04T03:48:52.099Z,68.10
2023-03-04T03:49:52.089Z,67.99
2023-03-04T03:50:52.096Z,67.99
2023-03-04T03:51:52.060Z,67.99
2023-03-04T03:52:52.052Z,67.99
2023-03-04T03:53:52.042Z,67.99
2023-03-04T03:54:52.020Z,68.10
2023-03-04T03:55:52.014Z,68.10
2023-03-04T03:56:51.998Z,67.99
2023-03-04T03:57:51.980Z,67.99
2023-03-04T03:58:51.972Z,67.99
2023-03-04T03:59:51.958Z,67.99
2023-03-04T04:00:51.940Z,67.99
2023-03-04T04:01:52.069Z,68.10
2023-03-04T04:02:51.990Z,68.10
2023-03-04T04:03:51.903Z,68.10
2023-03-04T04:04:51.887Z,68.10
2023-03-04T04:05:51.874Z,68.10
2023-03-04T04:06:51.884Z,67.99
2023-03-04T04:07:53.737Z,68.10
2023-03-04T04:08:51.838Z,68.10
2023-03-04T04:09:51.822Z,68.10
2023-03-04T04:10:51.807Z,67.99
2023-03-04T04:11:51.824Z,68.10
2023-03-04T04:12:51.831Z,68.10
2023-03-04T04:13:51.776Z,68.10
2023-03-04T04:14:51.757Z,68.10
2023-03-04T04:15:51.744Z,68.10
2023-03-04T04:16:51.815Z,68.10
2023-03-04T04:17:51.718Z,68.10
2023-03-04T04:18:51.708Z,68.10
2023-03-04T04:19:51.698Z,68.10
2023-03-04T04:20:51.679Z,68.10
2023-03-04T04:21:51.662Z,68.10
2023-03-04T04:22:51.674Z,68.10
2023-03-04T04:23:51.639Z,68.10
2023-03-04T04:24:51.620Z,68.10
2023-03-04T04:25:51.610Z,68.10
2023-03-04T04:26:51.591Z,68.10
2023-03-04T04:27:51.590Z,68.10
2023-03-04T04:28:51.583Z,68.10
2023-03-04T04:29:51.551Z,68.10
2023-03-04T04:30:51.617Z,68.10
2023-03-04T04:31:51.536Z,68.10
2023-03-04T04:32:51.511Z,68.10
2023-03-04T04:33:51.499Z,68.10
2023-03-04T04:34:51.488Z,68.10
2023-03-04T04:35:51.486Z,68.10
2023-03-04T04:36:51.456Z,68.10
2023-03-04T04:37:51.443Z,68.10
2023-03-04T04:38:51.452Z,68.10
2023-03-04T04:39:51.416Z,68.10
2023-03-04T04:40:51.556Z,68.10
2023-03-04T04:41:51.387Z,68.10
2023-03-04T04:42:51.377Z,68.10
2023-03-04T04:43:51.381Z,68.10
2023-03-04T04:44:51.348Z,68.10
2023-03-04T04:45:51.424Z,68.10
2023-03-04T04:46:51.319Z,68.10
2023-03-04T04:47:51.306Z,68.10
2023-03-04T04:48:51.301Z,68.10
2023-03-04T04:49:51.279Z,68.10
2023-03-04T04:50:51.368Z,68.10
2023-03-04T04:51:51.252Z,68.10
2023-03-04T04:52:51.239Z,68.10
2023-03-04T04:53:51.227Z,68.10
2023-03-04T04:54:51.234Z,68.10
2023-03-04T04:55:51.204Z,68.10
2023-03-04T04:56:51.184Z,68.10
2023-03-04T04:57:51.174Z,68.20
2023-03-04T04:58:51.160Z,68.10
2023-03-04T04:59:51.145Z,68.10
2023-03-04T05:00:51.131Z,68.10
2023-03-04T05:01:51.123Z,68.10
2023-03-04T05:02:51.201Z,68.10
2023-03-04T05:03:51.095Z,68.10
2023-03-04T05:04:51.079Z,68.20
2023-03-04T05:05:51.069Z,68.10
2023-03-04T05:06:51.056Z,68.10
2023-03-04T05:07:51.041Z,68.10
2023-03-04T05:08:51.028Z,68.20
2023-03-04T05:09:51.015Z,68.20
2023-03-04T05:10:51.028Z,68.10
2023-03-04T05:11:50.990Z,68.20
2023-03-04T05:12:50.977Z,68.10
2023-03-04T05:13:50.970Z,68.10
2023-03-04T05:14:50.958Z,68.10
2023-03-04T05:15:51.003Z,68.10
2023-03-04T05:16:50.922Z,68.10
2023-03-04T05:17:50.912Z,68.10
2023-03-04T05:18:50.898Z,68.10
2023-03-04T05:19:50.884Z,68.10
2023-03-04T05:20:50.870Z,68.10
2023-03-04T05:21:50.858Z,68.10
2023-03-04T05:22:50.844Z,68.10
2023-03-04T05:23:50.842Z,68.20
2023-03-04T05:24:50.821Z,68.20
2023-03-04T05:25:50.803Z,68.10
2023-03-04T05:26:50.815Z,68.20
2023-03-04T05:27:50.780Z,68.10
2023-03-04T05:28:50.769Z,68.10
2023-03-04T05:29:50.766Z,68.10
2023-03-04T05:30:50.777Z,68.10
2023-03-04T05:31:50.724Z,68.20
2023-03-04T05:32:50.712Z,68.20
2023-03-04T05:33:50.699Z,68.20
2023-03-04T05:34:50.699Z,68.20
2023-03-04T05:35:50.742Z,68.20
2023-03-04T05:36:50.662Z,68.20
2023-03-04T05:37:50.666Z,68.10
2023-03-04T05:38:50.633Z,68.10
2023-03-04T05:39:50.625Z,68.10
2023-03-04T05:40:50.609Z,68.10
2023-03-04T05:41:50.592Z,68.20
2023-03-04T05:42:50.604Z,68.20
2023-03-04T05:43:50.564Z,68.20
2023-03-04T05:44:50.561Z,68.10
2023-03-04T05:45:50.541Z,68.10
2023-03-04T05:46:50.587Z,68.20
2023-03-04T05:47:50.519Z,68.10
2023-03-04T05:48:50.500Z,68.10
2023-03-04T05:49:50.498Z,68.20
2023-03-04T05:50:50.475Z,68.20
2023-03-04T05:51:50.458Z,68.20
2023-03-04T05:52:50.448Z,68.20
2023-03-04T05:53:50.433Z,68.20
2023-03-04T05:54:50.438Z,68.20
2023-03-04T05:55:50.405Z,68.20
2023-03-04T05:56:50.393Z,68.10
2023-03-04T05:57:50.379Z,68.20
2023-03-04T05:58:50.391Z,68.20
2023-03-04T05:59:50.350Z,68.20
2023-03-04T06:00:50.345Z,68.20
2023-03-04T06:01:50.323Z,68.20
2023-03-04T06:02:50.387Z,68.20
2023-03-04T06:03:50.484Z,68.10
2023-03-04T06:04:50.287Z,68.20
2023-03-04T06:05:50.270Z,68.10
2023-03-04T06:06:50.259Z,68.20
2023-03-04T06:07:50.245Z,68.20
2023-03-04T06:08:50.232Z,68.20
2023-03-04T06:09:50.236Z,68.20
2023-03-04T06:10:50.207Z,68.20
2023-03-04T06:11:50.196Z,68.20
2023-03-04T06:12:50.179Z,68.20
2023-03-04T06:13:50.212Z,68.20
2023-03-04T06:14:50.181Z,68.20
2023-03-04T06:15:50.147Z,68.20
2023-03-04T06:16:50.127Z,68.20
2023-03-04T06:17:50.121Z,68.20
2023-03-04T06:18:50.108Z,68.20
2023-03-04T06:19:50.102Z,68.20
2023-03-04T06:20:50.084Z,68.10
2023-03-04T06:21:50.080Z,68.20
2023-03-04T06:22:50.051Z,68.20
2023-03-04T06:23:50.033Z,68.20
2023-03-04T06:24:50.029Z,68.20
2023-03-04T06:25:50.005Z,68.20
2023-03-04T06:26:49.997Z,68.20
2023-03-04T06:27:50.915Z,68.20
2023-03-04T06:28:49.965Z,68.10
2023-03-04T06:29:49.955Z,68.10
2023-03-04T06:30:49.965Z,68.20
2023-03-04T06:31:49.968Z,68.20
2023-03-04T06:32:49.917Z,68.20
2023-03-04T06:33:49.898Z,68.20
2023-03-04T06:34:49.885Z,68.20
2023-03-04T06:35:49.902Z,68.20
2023-03-04T06:36:49.858Z,68.20
2023-03-04T06:37:49.872Z,68.20
2023-03-04T06:38:49.830Z,68.30
2023-03-04T06:39:49.817Z,68.30
2023-03-04T06:40:49.805Z,68.20
2023-03-04T06:41:49.788Z,68.20
2023-03-04T06:42:49.779Z,68.20
2023-03-04T06:43:49.763Z,68.20
2023-03-04T06:44:49.750Z,68.20
2023-03-04T06:45:49.738Z,68.20
2023-03-04T06:46:49.846Z,68.20
2023-03-04T06:47:49.709Z,68.20
2023-03-04T06:48:49.696Z,68.20
2023-03-04T06:49:49.685Z,68.20
2023-03-04T06:50:49.669Z,68.20
2023-03-04T06:51:49.657Z,68.20
2023-03-04T06:52:49.648Z,68.20
2023-03-04T06:53:49.629Z,68.20
2023-03-04T06:54:49.621Z,68.20
2023-03-04T06:55:49.603Z,68.20
2023-03-04T06:56:49.598Z,68.20
2023-03-04T06:57:49.574Z,68.20
2023-03-04T06:58:49.563Z,68.20
2023-03-04T06:59:49.547Z,68.20
2023-03-04T07:00:49.577Z,68.20
2023-03-04T07:01:49.529Z,68.20
2023-03-04T07:02:49.535Z,68.20
2023-03-04T07:03:49.558Z,68.20
2023-03-04T07:04:49.496Z,68.20
2023-03-04T07:05:49.479Z,68.20
2023-03-04T07:06:49.463Z,68.20
2023-03-04T07:07:49.446Z,68.20
2023-03-04T07:08:49.435Z,68.20
2023-03-04T07:09:49.420Z,68.20
2023-03-04T07:10:49.404Z,68.20
2023-03-04T07:11:49.392Z,68.20
2023-03-04T07:12:49.376Z,68.20
2023-03-04T07:13:49.362Z,68.20
2023-03-04T07:14:49.355Z,68.20
2023-03-04T07:15:49.336Z,68.20
2023-03-04T07:16:49.322Z,68.20
2023-03-04T07:17:49.308Z,68.20
2023-03-04T07:18:49.334Z,68.20
2023-03-04T07:19:49.290Z,68.10
2023-03-04T07:20:49.274Z,68.10
2023-03-04T07:21:49.256Z,68.10
2023-03-04T07:22:49.245Z,68.20
2023-03-04T07:23:49.234Z,68.10
2023-03-04T07:24:49.221Z,68.10
2023-03-04T07:25:49.201Z,68.10
2023-03-04T07:26:49.196Z,68.10
2023-03-04T07:27:49.184Z,68.20
2023-03-04T07:28:49.176Z,68.10
2023-03-04T07:29:49.147Z,68.10
2023-03-04T07:30:49.135Z,68.20
2023-03-04T07:31:51.006Z,68.20
2023-03-04T07:32:49.153Z,68.20
2023-03-04T07:33:49.098Z,68.20
2023-03-04T07:34:49.106Z,68.10
2023-03-04T07:35:49.097Z,68.10
2023-03-04T07:36:49.058Z,68.10
2023-03-04T07:37:49.042Z,68.10
2023-03-04T07:38:49.033Z,68.10
2023-03-04T07:39:49.013Z,68.10
2023-03-04T07:40:49.004Z,68.10
2023-03-04T07:41:49.033Z,68.10
2023-03-04T07:42:48.975Z,68.10
2023-03-04T07:43:48.971Z,68.10
2023-03-04T07:44:48.957Z,68.10
2023-03-04T07:45:48.998Z,68.10
2023-03-04T07:46:48.923Z,67.99
2023-03-04T07:47:48.910Z,68.10
2023-03-04T07:48:48.898Z,68.10
2023-03-04T07:49:48.885Z,67.99
2023-03-04T07:50:48.896Z,67.99
2023-03-04T07:51:48.855Z,67.99
2023-03-04T07:52:48.843Z,67.99
2023-03-04T07:53:48.831Z,67.99
2023-03-04T07:54:48.815Z,67.99
2023-03-04T07:55:48.802Z,67.99
2023-03-04T07:56:48.790Z,67.99
2023-03-04T07:57:48.777Z,67.99
2023-03-04T07:58:48.762Z,67.99
2023-03-04T07:59:48.751Z,67.99
2023-03-04T08:00:48.735Z,67.99
2023-03-04T08:01:48.722Z,67.99
2023-03-04T08:02:48.809Z,67.99
2023-03-04T08:03:48.787Z,67.99
2023-03-04T08:04:48.682Z,67.99
2023-03-04T08:05:48.666Z,67.99
2023-03-04T08:06:48.749Z,67.99
2023-03-04T08:07:48.639Z,67.99
2023-03-04T08:08:48.641Z,67.99
2023-03-04T08:09:48.614Z,67.99
2023-03-04T08:10:48.604Z,67.89
2023-03-04T08:11:48.585Z,67.89
2023-03-04T08:12:48.574Z,67.89
2023-03-04T08:13:48.576Z,67.89
2023-03-04T08:14:48.547Z,67.89
2023-03-04T08:15:48.549Z,67.89
2023-03-04T08:16:48.521Z,67.89
2023-03-04T08:17:48.504Z,67.89
2023-03-04T08:18:48.548Z,67.89
2023-03-04T08:19:48.500Z,67.89
2023-03-04T08:20:48.468Z,67.89
2023-03-04T08:21:48.457Z,67.89
2023-03-04T08:22:48.465Z,67.89
2023-03-04T08:23:48.476Z,67.89
2023-03-04T08:24:48.411Z,67.89
2023-03-04T08:25:48.395Z,67.89
2023-03-04T08:26:48.396Z,67.89
2023-03-04T08:27:48.371Z,67.89
2023-03-04T08:28:48.358Z,67.89
2023-03-04T08:29:48.344Z,67.89
2023-03-04T08:30:48.359Z,67.89
2023-03-04T08:31:49.204Z,67.89
2023-03-04T08:32:48.350Z,67.89
2023-03-04T08:33:48.308Z,67.89
2023-03-04T08:34:48.278Z,67.79
2023-03-04T08:35:48.363Z,67.89
2023-03-04T08:36:48.253Z,67.79
2023-03-04T08:37:48.239Z,67.79
2023-03-04T08:38:48.253Z,67.79
2023-03-04T08:39:48.210Z,67.79
2023-03-04T08:40:48.208Z,67.79
2023-03-04T08:41:48.180Z,67.79
2023-03-04T08:42:48.171Z,67.79
2023-03-04T08:43:48.157Z,67.79
2023-03-04T08:44:48.143Z,67.79
2023-03-04T08:45:48.200Z,67.79
2023-03-04T08:46:48.143Z,67.79
2023-03-04T08:47:48.103Z,67.79
2023-03-04T08:48:48.100Z,67.79
2023-03-04T08:49:48.081Z,67.79
2023-03-04T08:50:48.066Z,67.79
2023-03-04T08:51:48.069Z,67.79
2023-03-04T08:52:48.041Z,67.79
2023-03-04T08:53:48.034Z,67.79
2023-03-04T08:54:48.044Z,67.79
2023-03-04T08:55:48.003Z,67.68
2023-03-04T08:56:48.010Z,67.68
2023-03-04T08:57:47.970Z,67.79
2023-03-04T08:58:47.960Z,67.79
2023-03-04T08:59:47.946Z,67.79
2023-03-04T09:00:47.942Z,67.79
2023-03-04T09:01:47.940Z,67.68
2023-03-04T09:02:47.907Z,67.68
2023-03-04T09:03:47.959Z,67.68
2023-03-04T09:04:47.882Z,67.68
2023-03-04T09:05:47.866Z,67.68
2023-03-04T09:06:47.851Z,67.68
2023-03-04T09:07:47.835Z,67.68
2023-03-04T09:08:47.822Z,67.68
2023-03-04T09:09:47.812Z,67.68
2023-03-04T09:10:47.823Z,67.68
2023-03-04T09:11:47.784Z,67.58
2023-03-04T09:12:47.768Z,67.58
2023-03-04T09:13:47.798Z,67.58
2023-03-04T09:14:53.326Z,67.58
2023-03-04T09:15:48.935Z,67.58
2023-03-04T09:16:47.716Z,67.58
2023-03-04T09:17:47.702Z,67.58
2023-03-04T09:18:47.700Z,67.58
2023-03-04T09:19:47.676Z,67.68
2023-03-04T09:20:47.661Z,67.68
2023-03-04T09:21:47.650Z,67.68
2023-03-04T09:22:47.636Z,67.68
2023-03-04T09:23:47.630Z,67.68
2023-03-04T09:24:47.614Z,67.68
2023-03-04T09:25:47.621Z,67.68
2023-03-04T09:26:47.732Z,67.68
2023-03-04T09:27:47.570Z,67.68
2023-03-04T09:28:47.560Z,67.68
2023-03-04T09:29:47.544Z,67.68
2023-03-04T09:30:48.537Z,67.68
2023-03-04T09:31:47.518Z,67.68
2023-03-04T09:32:47.507Z,67.68
2023-03-04T09:33:47.488Z,67.79
2023-03-04T09:34:47.501Z,67.79
2023-03-04T09:35:47.518Z,67.79
2023-03-04T09:36:47.451Z,67.68
2023-03-04T09:37:47.439Z,67.68
2023-03-04T09:38:47.425Z,67.68
2023-03-04T09:39:47.412Z,67.68
2023-03-04T09:40:47.433Z,67.68
2023-03-04T09:41:47.383Z,67.68
2023-03-04T09:42:47.640Z,67.68
2023-03-04T09:43:47.360Z,67.68
2023-03-04T09:44:47.345Z,67.68
2023-03-04T09:45:47.336Z,67.68
2023-03-04T09:46:47.370Z,67.68
2023-03-04T09:47:47.307Z,67.68
2023-03-04T09:48:47.292Z,67.68
2023-03-04T09:49:47.280Z,67.68
2023-03-04T09:50:47.276Z,67.68
2023-03-04T09:51:47.254Z,67.68
2023-03-04T09:52:47.250Z,67.68
2023-03-04T09:53:47.229Z,67.68
2023-03-04T09:54:47.213Z,67.58
2023-03-04T09:55:47.202Z,67.68
2023-03-04T09:56:47.216Z,67.68
2023-03-04T09:57:47.179Z,67.68
2023-03-04T09:58:47.205Z,67.68
2023-03-04T09:59:47.148Z,67.68
2023-03-04T10:00:47.247Z,67.58
2023-03-04T10:01:47.124Z,67.68
2023-03-04T10:02:47.105Z,67.58
2023-03-04T10:03:47.170Z,67.58
2023-03-04T10:04:47.180Z,67.58
2023-03-04T10:05:47.067Z,67.58
2023-03-04T10:06:47.072Z,67.58
2023-03-04T10:07:47.046Z,67.58
2023-03-04T10:08:47.032Z,67.58
2023-03-04T10:09:47.015Z,67.58
2023-03-04T10:10:47.052Z,67.58
2023-03-04T10:11:46.992Z,67.58
2023-03-04T10:12:46.977Z,67.55
2023-03-04T10:13:46.963Z,67.58
2023-03-04T10:14:46.984Z,67.58
2023-03-04T10:15:46.939Z,67.58
2023-03-04T10:16:46.921Z,67.55
2023-03-04T10:17:46.915Z,67.55
2023-03-04T10:18:46.900Z,67.58
2023-03-04T10:19:46.881Z,67.55
2023-03-04T10:20:46.865Z,67.44
2023-03-04T10:21:46.870Z,67.44
2023-03-04T10:22:46.844Z,67.44
2023-03-04T10:23:46.827Z,67.44
2023-03-04T10:24:46.812Z,67.55
2023-03-04T10:25:46.825Z,67.44
2023-03-04T10:26:46.788Z,67.44
2023-03-04T10:27:46.774Z,67.44
2023-03-04T10:28:46.763Z,67.44
2023-03-04T10:29:48.979Z,67.44
2023-03-04T10:30:46.757Z,67.44
2023-03-04T10:31:46.757Z,67.44
2023-03-04T10:32:46.702Z,67.44
2023-03-04T10:33:46.691Z,67.44
2023-03-04T10:34:46.675Z,67.44
2023-03-04T10:35:46.695Z,67.44
2023-03-04T10:36:46.647Z,67.44
2023-03-04T10:37:46.643Z,67.44
2023-03-04T10:38:46.620Z,67.55
2023-03-04T10:39:46.619Z,67.44
2023-03-04T10:40:46.607Z,67.55
2023-03-04T10:41:46.752Z,67.55
2023-03-04T10:42:46.745Z,67.55
2023-03-04T10:43:46.552Z,67.55
2023-03-04T10:44:46.540Z,67.55
2023-03-04T10:45:46.589Z,67.55
2023-03-04T10:46:46.538Z,67.55
2023-03-04T10:47:46.496Z,67.55
2023-03-04T10:48:46.483Z,67.65
2023-03-04T10:49:46.470Z,67.55
2023-03-04T10:50:46.453Z,67.55
2023-03-04T10:51:46.449Z,67.55
2023-03-04T10:52:46.450Z,67.65
2023-03-04T10:53:46.415Z,67.65
2023-03-04T10:54:46.396Z,67.65
2023-03-04T10:55:46.396Z,67.65
2023-03-04T10:56:46.395Z,67.65
2023-03-04T10:57:46.359Z,67.65
2023-03-04T10:58:46.356Z,67.65
2023-03-04T10:59:46.328Z,67.65
2023-03-04T11:00:46.353Z,67.65
2023-03-04T11:01:46.304Z,67.65
2023-03-04T11:02:46.317Z,67.65
2023-03-04T11:03:46.288Z,67.68
2023-03-04T11:04:46.262Z,67.65
2023-03-04T11:05:46.250Z,67.65
2023-03-04T11:06:46.244Z,67.65
2023-03-04T11:07:54.958Z,67.65
2023-03-04T11:08:47.247Z,67.65
2023-03-04T11:09:46.192Z,67.65
2023-03-04T11:10:46.177Z,67.65
2023-03-04T11:11:46.216Z,67.65
2023-03-04T11:12:46.156Z,67.65
2023-03-04T11:13:46.141Z,67.65
2023-03-04T11:14:46.121Z,67.65
2023-03-04T11:15:46.110Z,67.55
2023-03-04T11:16:46.138Z,67.55
2023-03-04T11:17:46.087Z,67.55
2023-03-04T11:18:46.095Z,67.55
2023-03-04T11:19:46.058Z,67.55
2023-03-04T11:20:46.042Z,67.55
2023-03-04T11:21:46.031Z,67.65
2023-03-04T11:22:46.021Z,67.65
2023-03-04T11:23:46.009Z,67.65
2023-03-04T11:24:45.988Z,67.65
2023-03-04T11:25:45.973Z,67.65
2023-03-04T11:26:45.963Z,67.65
2023-03-04T11:27:45.954Z,67.65
2023-03-04T11:28:45.936Z,67.65
2023-03-04T11:29:45.925Z,67.65
2023-03-04T11:30:45.918Z,67.65
2023-03-04T11:31:45.969Z,67.65
2023-03-04T11:32:45.933Z,67.65
2023-03-04T11:33:45.870Z,67.65
2023-03-04T11:34:45.877Z,67.65
2023-03-04T11:35:45.935Z,67.55
2023-03-04T11:36:45.835Z,67.65
2023-03-04T11:37:45.824Z,67.55
2023-03-04T11:38:45.812Z,67.55
2023-03-04T11:39:45.811Z,67.65
2023-03-04T11:40:45.793Z,67.65
2023-03-04T11:41:45.779Z,67.55
2023-03-04T11:42:45.773Z,67.55
2023-03-04T11:43:45.756Z,67.55
2023-03-04T11:44:45.749Z,67.55
2023-03-04T11:45:45.813Z,67.55
2023-03-04T11:46:45.717Z,67.55
2023-03-04T11:47:45.708Z,67.55
2023-03-04T11:48:45.702Z,67.44
2023-03-04T11:49:45.681Z,67.44
2023-03-04T11:50:45.748Z,67.44
2023-03-04T11:51:45.658Z,67.44
2023-03-04T11:52:45.644Z,67.34
2023-03-04T11:53:45.630Z,67.34
2023-03-04T11:54:45.615Z,67.44
2023-03-04T11:55:45.622Z,67.44
2023-03-04T11:56:45.600Z,67.44
2023-03-04T11:57:45.576Z,67.55
2023-03-04T11:58:45.560Z,67.55
2023-03-04T11:59:45.548Z,67.55
2023-03-04T12:00:45.536Z,67.65
2023-03-04T12:01:45.524Z,67.65
2023-03-04T12:02:45.506Z,67.65
2023-03-04T12:03:45.599Z,67.65
2023-03-04T12:04:45.536Z,67.55
2023-03-04T12:05:45.467Z,67.55
2023-03-04T12:06:45.483Z,67.55
2023-03-04T12:07:45.442Z,67.55
2023-03-04T12:08:45.434Z,67.55
2023-03-04T12:09:45.415Z,67.55
2023-03-04T12:10:45.420Z,67.55
2023-03-04T12:11:45.389Z,67.55
2023-03-04T12:12:45.375Z,67.55
2023-03-04T12:13:45.362Z,67.55
2023-03-04T12:14:45.349Z,67.55
2023-03-04T12:15:45.389Z,67.55
2023-03-04T12:16:45.324Z,67.55
2023-03-04T12:17:45.311Z,67.55
2023-03-04T12:18:45.294Z,67.55
2023-03-04T12:19:45.283Z,67.55
2023-03-04T12:20:45.271Z,67.44
2023-03-04T12:21:45.262Z,67.44
2023-03-04T12:22:45.266Z,67.44
2023-03-04T12:23:45.232Z,67.44
2023-03-04T12:24:45.232Z,67.44
2023-03-04T12:25:45.232Z,67.44
2023-03-04T12:26:45.193Z,67.44
2023-03-04T12:27:45.177Z,67.44
2023-03-04T12:28:45.167Z,67.44
2023-03-04T12:29:45.162Z,67.44
2023-03-04T12:30:45.242Z,67.44
2023-03-04T12:31:45.143Z,67.44
2023-03-04T12:32:45.132Z,67.44
2023-03-04T12:33:45.151Z,67.55
2023-03-04T12:34:45.111Z,67.55
2023-03-04T12:35:45.181Z,67.55
2023-03-04T12:36:45.073Z,67.55
2023-03-04T12:37:45.047Z,67.55
2023-03-04T12:38:45.057Z,67.55
2023-03-04T12:39:45.019Z,67.55
2023-03-04T12:40:45.002Z,67.55
2023-03-04T12:41:45.011Z,67.55
2023-03-04T12:42:44.974Z,67.55
2023-03-04T12:43:45.000Z,67.55
2023-03-04T12:44:44.955Z,67.55
2023-03-04T12:45:44.934Z,67.55
2023-03-04T12:46:44.964Z,67.44
2023-03-04T12:47:44.909Z,67.44
2023-03-04T12:48:44.900Z,67.44
2023-03-04T12:49:44.884Z,67.55
2023-03-04T12:50:44.867Z,67.55
2023-03-04T12:51:44.854Z,67.55
2023-03-04T12:52:44.857Z,67.55